Home > Products > Valid Products > TAF

000
FTUS46 KMTR 230000 CCA
TAFSFO
TAF COR
KSFO 230003Z 2300/2406 29016G22KT P6SM FEW012 SCT025 SCT200
     FM230200 31009KT P6SM FEW025 SCT200
     FM231000 33004KT P6SM SCT200
     FM231800 31007KT P6SM SCT200
     FM240300 29007KT P6SM SCT200=



000
FTUS46 KMTR 222300
TAFSJC
TAF
KSJC 222340Z 2300/2324 31011KT P6SM FEW012 SCT030 SCT200
     FM230200 30006KT P6SM FEW030 SCT200
     FM230800 31004KT P6SM SCT200=



000
FTUS46 KMTR 222300
TAFSTS
TAF
KSTS 222340Z 2300/2324 32010KT P6SM FEW030 SCT150
     FM230500 33005KT 2SM BR OVC004
     FM230800 35003KT 1/4SM FG VV002
     FM231700 32005KT P6SM SCT200=



000
FTUS46 KMTR 222300
TAFSFO
TAF
KSFO 222340Z 2300/2406 29012KT P6SM FEW012 SCT025 SCT200
     FM230200 31009KT P6SM FEW025 SCT200
     FM231000 33004KT P6SM SCT200
     FM231800 31007KT P6SM SCT200
     FM240300 29007KT P6SM SCT200=



000
FTUS46 KMTR 222300
TAFSNS
TAF
KSNS 222340Z 2300/2324 25009KT 6SM BR VCSH BKN009 OVC020
     FM230100 25008KT P6SM SCT015 BKN030
     FM230400 VRB04KT P6SM FEW200
     FM231800 27008KT P6SM FEW200=



000
FTUS46 KMTR 222300
TAFMRY
TAF
KMRY 222340Z 2300/2324 27009G18KT P6SM SCT012 BKN035
     FM230100 26006KT P6SM FEW015 SCT030
     FM230800 VRB03KT P6SM FEW200
     FM231800 32006KT P6SM FEW200=



000
FTUS46 KMTR 222300
TAFOAK
TAF
KOAK 222340Z 2300/2406 29012KT P6SM FEW030 SCT180
     FM230400 31006KT P6SM FEW200
     FM230700 34003KT P6SM FEW020 SCT200
     FM231800 31008KT P6SM SCT200
     FM240300 29007KT P6SM SCT200=



000
FTUS46 KMTR 222200 AAB
TAFSTS
TAF AMD
KSTS 222205Z 2222/2318 32013G23KT P6SM SCT030 SCT150
     FM230000 32008KT P6SM SCT200
     FM230500 33005KT 2SM BR OVC004
     FM230800 35004KT 1/4SM FG VV002=



000
FTUS46 KMTR 222200 AAB
TAFSTS
TAF AMD
KSTS 222205Z 2222/2318 32013G23KT P6SM SCT030 SCT150
     FM230000 32008KT P6SM SCT200
     FM230500 33005KT 2SM BR OVC004
     FM230800 35004KT 1/4SM FG VV002=



000
FTUS46 KMTR 222100 AAC
TAFSFO
TAF AMD
KSFO 222148Z 2222/2324 29012KT P6SM FEW010 SCT015
      TEMPO 2222/2301 FEW008 BKN012 BKN020
     FM230200 31006KT P6SM FEW020 SCT200
     FM230800 34003KT P6SM SCT200
     FM231800 31007KT P6SM FEW200=



000
FTUS46 KMTR 222100 AAC
TAFOAK
TAF AMD
KOAK 222132Z 2222/2324 29011KT P6SM FEW010 SCT030 BKN180
      TEMPO 2222/2302 FEW009 BKN020 OVC180
     FM230400 31006KT P6SM FEW200
     FM230700 34003KT P6SM SCT200
     FM231800 31008KT P6SM SCT200=



000
FTUS46 KMTR 221900 AAB
TAFOAK
TAF AMD
KOAK 221959Z 2220/2324 29011KT P6SM SCT020 SCT250
      TEMPO 2220/2223 BKN020
     FM230400 30006KT P6SM FEW250
     FM230700 35003KT P6SM FEW250
     FM231800 32008KT P6SM SCT250=



000
FTUS46 KMTR 221900 AAB
TAFSFO
TAF AMD
KSFO 221956Z 2220/2324 27014KT P6SM SCT020
      TEMPO 2220/2223 SCT015 BKN020
     FM222300 29013KT P6SM SCT035 SCT250
     FM230500 29009KT P6SM FEW250
     FM231400 33006KT P6SM SCT250
     FM232100 30009KT P6SM SCT250=



000
FTUS46 KMTR 221800 AAA
TAFSTS
TAF AMD
KSTS 221844Z 2219/2318 29008KT P6SM SCT030 BKN040
     FM222300 30006KT P6SM FEW250
     FM230500 33005KT 2SM BR OVC004
     FM230800 35005KT 1/4SM FG VV002=



000
FTUS46 KMTR 221800 AAA
TAFSJC
TAF AMD
KSJC 221841Z 2219/2318 12014KT 3SM -RA BR OVC030
      TEMPO 2219/2220 27011G16KT 2SM -RA BR OVC020
     FM222100 29009KT 6SM BR VCSH BKN025 OVC040
     FM222300 31011KT P6SM SCT050 SCT250
     FM230200 29006KT P6SM SKC
     FM230500 31004KT P6SM SKC=



000
FTUS46 KMTR 221800 AAA
TAFSFO
TAF AMD
KSFO 221830Z 2219/2324 23013G24KT 2SM -RA BR BKN015 OVC020
     FM221900 24013G21KT 6SM BR VCSH BKN020 OVC030
     FM222300 29014KT P6SM SCT040 SCT250
     FM230500 29009KT P6SM SKC
     FM231400 33006KT P6SM SCT250
     FM232100 30009KT P6SM SCT250=



000
FTUS46 KMTR 221800 AAA
TAFOAK
TAF AMD
KOAK 221829Z 2218/2324 22012G18KT 3SM -RA BR BKN009 OVC015
     FM221900 23011G16KT 6SM BR VCSH BKN015 OVC025
     FM222100 27011KT P6SM SCT040 SCT250
     FM230400 30006KT P6SM SKC
     FM230700 35003KT P6SM SKC
     FM231800 32008KT P6SM SCT250=



000
FTUS46 KMTR 221700 CCA
TAFSFO
TAF COR
KSFO 221746Z 2218/2324 23012G18KT 3SM -RA BR BKN020 OVC030
     FM221900 24012KT 6SM BR VCSH BKN030 OVC040
     FM222300 29014KT P6SM SCT040 SCT250
     FM230500 29009KT P6SM SKC
     FM231400 33006KT P6SM SCT250
     FM232100 30009KT P6SM SCT250=



000
FTUS46 KMTR 221700
TAFMRY
TAF
KMRY 221736Z 2218/2318 21008KT 5SM -RA BR BKN015 OVC020
     FM221900 23008KT 4SM -RA BR BKN030 OVC040
      TEMPO 2219/2221 2SM RA BR BKN015 OVC020
     FM222200 27006KT 6SM BR VCSH BKN030 OVC040
     FM230100 26006KT P6SM SKC
     FM230800 VRB03KT P6SM SKC=



000
FTUS46 KMTR 221700
TAFSJC
TAF
KSJC 221736Z 2218/2318 12014KT 6SM -RA BR OVC035
     FM222100 29009KT 6SM BR VCSH BKN025 OVC040
     FM222300 31011KT P6SM SCT050 SCT250
     FM230200 29006KT P6SM SKC
     FM230500 31004KT P6SM SKC=



000
FTUS46 KMTR 221700
TAFSTS
TAF
KSTS 221736Z 2218/2318 31008G15KT 4SM BR VCSH SCT025 OVC040
     FM222000 30008KT 5SM BR BKN040
     FM222300 30006KT P6SM FEW250
     FM230500 33005KT 2SM BR OVC004
     FM230800 35005KT 1/4SM FG VV002=



000
FTUS46 KMTR 221700
TAFSFO
TAF
KSFO 221736Z 2218/2324 23012KT 3SM -RA BR BKN020 OVC030
     FM221900 24012KT 6SM BR VCSH BKN030 OVC040
     FM222300 29014KT P6SM SCT040 SCT250
     FM230500 29009KT P6SM SKC
     FM231400 33006KT P6SM SCT250
     FM232100 30009KT P6SM SCT250=



000
FTUS46 KMTR 221700
TAFSNS
TAF
KSNS 221736Z 2218/2318 12013KT 3SM -RA BR BKN010 OVC020
      TEMPO 2218/2221 2SM RA BR BKN009 OVC015
     FM222200 25009KT 6SM BR VCSH BKN030 OVC040
     FM230100 25004KT P6SM SKC
     FM230800 00000KT P6SM SKC=



000
FTUS46 KMTR 221700
TAFOAK
TAF
KOAK 221736Z 2218/2324 17011G16KT 3SM -RA BR BKN009 OVC015
     FM221900 22011KT 6SM BR VCSH BKN015 OVC025
     FM222100 26011KT P6SM SCT040 SCT250
     FM230400 30006KT P6SM SKC
     FM230700 35003KT P6SM SKC
     FM231800 32008KT P6SM SCT250=



000
FTUS46 KMTR 221500 AAA
TAFOAK
TAF AMD
KOAK 221542Z 2216/2318 16010KT 4SM -RA BKN012 OVC020
      TEMPO 2216/2218 16014KT 2SM RA BR BKN009 OVC012
     FM221800 23008KT 6SM BR VCSH BKN030
     FM222100 26010KT P6SM SCT040
     FM230400 30006KT P6SM SKC
     FM230700 35003KT P6SM SKC=



000
FTUS46 KMTR 221500 AAA
TAFOAK
TAF AMD
KOAK 221542Z 2216/2318 16010KT 4SM -RA BKN012 OVC020
      TEMPO 2216/2218 16014KT 2SM RA BR BKN009 OVC012
     FM221800 23008KT 6SM BR VCSH BKN030
     FM222100 26010KT P6SM SCT040
     FM230400 30006KT P6SM SKC
     FM230700 35003KT P6SM SKC=



000
FTUS46 KMTR 221500 AAA
TAFSFO
TAF AMD
KSFO 221518Z 2215/2318 20010KT 6SM -RA BR BKN020 OVC030
     FM221900 23011KT 6SM BR VCSH SCT030 BKN040
     FM222300 29012KT P6SM SCT040 BKN250
     FM230500 29008KT P6SM SKC
     FM231200 33006KT P6SM SKC=



000
FTUS46 KMTR 221100 CCA
TAFSFO
TAF COR
KSFO 221134Z 2212/2318 17012KT P6SM VCSH BKN026 OVC030
     FM221300 20011KT 6SM -RA BR BKN030 OVC045
     FM221900 23011KT 6SM BR VCSH SCT030 BKN040
     FM222300 29012KT P6SM SCT040 BKN250
     FM230500 29008KT P6SM SKC
     FM231200 33006KT P6SM SKC=



000
FTUS46 KMTR 221100
TAFMRY
TAF
KMRY 221133Z 2212/2312 10006KT P6SM BKN050
     FM221600 VRB03KT 6SM -SHRA BR BKN035 OVC045
     FM222000 24008KT 6SM -RA BR BKN030 OVC040
     FM222200 27006KT 6SM -RA BR BKN030 OVC040
     FM230100 26004KT P6SM SKC
     FM230800 36004KT P6SM SKC=



000
FTUS46 KMTR 221100
TAFSNS
TAF
KSNS 221133Z 2212/2312 11009KT P6SM BKN060
     FM221700 VRB03KT 6SM -SHRA BR BKN035 OVC045
     FM222000 17010KT 6SM -RA BR BKN030 OVC040
     FM222200 27009KT 6SM -RA BR BKN030 OVC040
     FM230100 25004KT P6SM SKC
     FM230800 00000KT P6SM SKC=



000
FTUS46 KMTR 221100
TAFSTS
TAF
KSTS 221133Z 2212/2312 15009KT 3SM -RA BR FEW010 BKN016 OVC023
      TEMPO 2212/2216 2SM -RA BR OVC004
     FM221800 23008KT 2SM BR VCSH BKN005 BKN015
     FM222000 30008KT 4SM BR BKN015
     FM222300 30006KT P6SM FEW250
     FM230500 33005KT 2SM BR OVC004
     FM230800 35005KT 1/4SM FG VV002=



000
FTUS46 KMTR 221100
TAFSJC
TAF
KSJC 221133Z 2212/2312 12010KT P6SM OVC045
     FM221500 15014KT 6SM -RA BR OVC035
     FM222000 29009KT 6SM -RA BR BKN025 OVC040
     FM230100 29009KT P6SM SKC
     FM230500 31004KT P6SM SKC=



000
FTUS46 KMTR 221100
TAFOAK
TAF
KOAK 221133Z 2212/2318 15010KT P6SM FEW017 BKN024 OVC035
     FM221300 16010KT 4SM -RA FEW017 BKN024 OVC035
     FM221800 23008KT 6SM BR VCSH BKN030
     FM222100 26010KT P6SM SCT040
     FM230400 30006KT P6SM SKC
     FM230700 35003KT P6SM SKC=



000
FTUS46 KMTR 221100
TAFSFO
TAF
KSFO 221133Z 2212/2318 18012KT P6SM VCSH FEW028 SCT035 OVC045
     FM221300 20011KT 6SM -RA BR BKN030 OVC045
     FM221900 23011KT 6SM BR VCSH SCT030 BKN040
     FM222300 29012KT P6SM SCT040 BKN250
     FM230500 29008KT P6SM SKC
     FM231200 33006KT P6SM SKC=



000
FTUS46 KMTR 220900 AAA
TAFSFO
TAF AMD
KSFO 220918Z 2209/2312 16006KT P6SM FEW035 OVC045
     FM221000 19011KT P6SM VCSH BKN030 OVC045
     FM221300 20011KT 6SM -RA BR BKN030 OVC045
     FM221900 23011KT 6SM BR VCSH SCT030 BKN040
     FM222300 29012KT P6SM SCT040 BKN250
     FM230500 29008KT P6SM SKC=



000
FTUS46 KMTR 220500
TAFMRY
TAF
KMRY 220534Z 2206/2306 00000KT P6SM SCT200
     FM221100 VRB03KT P6SM BKN040
     FM221600 VRB03KT 6SM -SHRA BR BKN035 OVC045
     FM222000 24008KT 6SM -RA BR BKN030 OVC040
     FM222200 27006KT 6SM -RA BR BKN030 OVC040
     FM230100 26004KT P6SM SKC=



000
FTUS46 KMTR 220500
TAFSJC
TAF
KSJC 220534Z 2206/2306 00000KT P6SM BKN060
     FM221000 14011KT P6SM FEW025 BKN050
     FM221500 15014KT 6SM -RA BR OVC035
     FM222000 29009KT 6SM -RA BR BKN025 OVC040
     FM230100 29009KT P6SM SKC=



000
FTUS46 KMTR 220500
TAFOAK
TAF
KOAK 220534Z 2206/2312 15003KT P6SM BKN045 BKN070
     FM221200 17010KT 6SM -RA BR OVC030
     FM221800 23008KT 6SM BR VCSH BKN030
     FM222100 26010KT P6SM SCT040
     FM230400 30006KT P6SM SKC=



000
FTUS46 KMTR 220500
TAFSNS
TAF
KSNS 220534Z 2206/2306 00000KT P6SM SCT200
     FM221100 VRB03KT P6SM BKN040
     FM221700 VRB03KT 6SM -SHRA BR BKN035 OVC045
     FM222000 17010KT 6SM -RA BR BKN030 OVC040
     FM222200 27009KT 6SM -RA BR BKN030 OVC040
     FM230100 25004KT P6SM SKC=



000
FTUS46 KMTR 220500
TAFSTS
TAF
KSTS 220534Z 2206/2306 00000KT 6SM BR OVC017
     FM220800 17006KT 1SM -SHRA BR BKN005 OVC015
      TEMPO 2208/2212 1/4SM FG VV001
     FM221200 18006KT 1SM -RA BR BKN005 OVC015
      TEMPO 2212/2216 1/4SM FG VV001
     FM221800 23008KT 4SM BR VCSH BKN005 BKN015
     FM222000 30008KT 4SM BR BKN015
     FM222300 30006KT P6SM FEW250=



000
FTUS46 KMTR 220500
TAFSFO
TAF
KSFO 220534Z 2206/2312 18003KT P6SM SCT050 BKN070 OVC080
     FM221000 19011KT P6SM VCSH BKN030 OVC050
     FM221300 20011KT 6SM -RA BR BKN030 OVC050
     FM221900 23011KT 6SM BR VCSH SCT030 BKN040
     FM222300 29012KT P6SM SCT040 BKN250
     FM230500 29008KT P6SM SKC=



000
FTUS46 KMTR 220300 AAA
TAFSTS
TAF AMD
KSTS 220307Z 2203/2224 00000KT P6SM BKN021 OVC035
     FM220700 17006KT 1SM -RA BR BKN005 OVC015
      TEMPO 2208/2212 1/4SM FG VV001
     FM221200 18006KT 1SM -RA BR BKN005 OVC015
      TEMPO 2212/2216 1/4SM FG VV001
     FM221800 23008KT 4SM BR VCSH BKN005 BKN015
     FM222000 30008KT 4SM BR OVC015=



000
FTUS46 KMTR 220300 AAA
TAFSFO
TAF AMD
KSFO 220305Z 2203/2306 00000KT P6SM OVC050
     FM220500 18006KT P6SM OVC040
     FM221000 19011KT P6SM VCSH BKN030 OVC050
     FM221300 20011KT 6SM -RA BR BKN030 OVC050
     FM221900 23011KT 6SM BR VCSH SCT030 BKN040
     FM222300 29010KT P6SM SCT040 BKN250=



000
FTUS46 KMTR 212300
TAFOAK
TAF
KOAK 212338Z 2200/2306 31003KT P6SM FEW020 OVC070
     FM220300 21008KT P6SM BKN040
     FM221200 17010KT 6SM -RA BR OVC030
     FM221800 23008KT 6SM BR VCSH BKN030
     FM222100 26010KT P6SM SCT040=



000
FTUS46 KMTR 212300
TAFSNS
TAF
KSNS 212338Z 2200/2224 28006KT P6SM FEW035 BKN200
     FM220200 VRB03KT P6SM FEW035 SCT100
     FM220900 12007KT P6SM BKN040
     FM221700 13008KT 6SM -RA BR OVC035
     FM222300 26009KT 6SM BR VCSH BKN040=



000
FTUS46 KMTR 212300
TAFSFO
TAF
KSFO 212338Z 2200/2306 04003KT P6SM FEW011 SCT018 OVC070
     FM220400 18006KT P6SM FEW025 SCT040 BKN100
     FM221300 20009KT 6SM -RA BR OVC030
     FM221900 26011KT 6SM BR VCSH BKN030
     FM222200 29010KT P6SM SCT040=



000
FTUS46 KMTR 212300
TAFMRY
TAF
KMRY 212338Z 2200/2224 31004KT P6SM FEW035 BKN200
     FM220200 12004KT P6SM FEW035 SCT100
     FM220800 12006KT P6SM BKN040
     FM221600 14006KT 6SM -RA BR OVC035
     FM222200 24006KT 6SM BR VCSH BKN040=



000
FTUS46 KMTR 212300
TAFSJC
TAF
KSJC 212338Z 2200/2224 29007KT P6SM FEW030 SCT090 BKN110
     FM220300 14006KT P6SM FEW035 BKN100
     FM221000 14011KT P6SM FEW025 BKN050
     FM221500 15014KT 6SM -RA BR OVC035
     FM222000 29009KT P6SM VCSH BKN040=



000
FTUS46 KMTR 212300
TAFSTS
TAF
KSTS 212338Z 2200/2224 00000KT 4SM HZ FEW023 BKN028 OVC050
     FM220400 16004KT 6SM HZ FEW020 BKN050
     FM220800 17006KT 1SM -RA BR BKN005 OVC015
      TEMPO 2208/2212 1/4SM FG VV001
     FM221200 18006KT 1SM -RA BR BKN005 OVC015
      TEMPO 2212/2216 1/4SM FG VV001
     FM221800 23008KT 4SM BR VCSH BKN005 BKN015
     FM222000 30008KT 4SM BR OVC015=



000
FTUS46 KMTR 212000 AAA
TAFSFO
TAF AMD
KSFO 212042Z 2121/2224 07004KT P6SM SCT020 BKN150
     FM212200 23005KT P6SM FEW035 BKN100
     FM220400 18006KT P6SM FEW025 SCT040 BKN100
     FM221300 20009KT P6SM -RA OVC030
     FM221900 26011KT 6SM BR VCSH BKN030
     FM222100 29010KT P6SM SCT040=



000
FTUS46 KMTR 211800 AAA
TAFSNS
TAF AMD
KSNS 211812Z 2118/2218 VRB03KT 4SM BR SCT004
     FM211900 28008KT P6SM FEW035 SCT150
     FM220200 VRB03KT P6SM SCT100
     FM220900 12007KT P6SM BKN040
     FM221700 13008KT 6SM -RA BR OVC035=



000
FTUS46 KMTR 211700
TAFSTS
TAF
KSTS 211739Z 2118/2218 VRB03KT 2SM BR FEW006 SCT040
     FM211900 16004KT P6SM FEW035 BKN100
     FM220800 16006KT 3SM -RA BR OVC020
     FM221500 29006KT 6SM -RA BR BKN030=



000
FTUS46 KMTR 211700
TAFOAK
TAF
KOAK 211739Z 2118/2224 VRB05KT P6SM OVC030
     FM212100 27006KT P6SM FEW030 BKN150
     FM220300 16008KT P6SM BKN040
     FM221200 17010KT P6SM -RA OVC030
     FM221800 27008KT 6SM BR VCSH BKN030=



000
FTUS46 KMTR 211700
TAFSNS
TAF
KSNS 211739Z 2118/2218 VRB03KT 1/2SM FG VV002
     FM211900 28008KT P6SM FEW035 SCT150
     FM220200 VRB03KT P6SM SCT100
     FM220900 12007KT P6SM BKN040
     FM221700 13008KT 6SM -RA BR OVC035=



000
FTUS46 KMTR 211700
TAFMRY
TAF
KMRY 211739Z 2118/2218 11003KT P6SM SCT016
     FM211900 29005KT P6SM FEW035 SCT150
     FM220200 12004KT P6SM SCT100
     FM220800 12006KT P6SM BKN040
     FM221600 14006KT 6SM -RA BR OVC035=



000
FTUS46 KMTR 211700
TAFSJC
TAF
KSJC 211739Z 2118/2218 13003KT P6SM SCT030 SCT150
     FM212200 31007KT P6SM FEW040 BKN150
     FM220300 14006KT P6SM FEW035 BKN100
     FM221000 14011KT P6SM FEW030 BKN050
     FM221500 15015KT P6SM -RA OVC035=



000
FTUS46 KMTR 211700
TAFSFO
TAF
KSFO 211739Z 2118/2224 07004KT P6SM SCT020 BKN150
     FM212100 30005KT P6SM FEW035 BKN100
     FM220400 18006KT P6SM FEW025 SCT040 BKN100
     FM221300 16010KT P6SM -RA OVC030
     FM221900 28014KT 6SM BR VCSH BKN030=



000
FTUS46 KMTR 211600 AAA
TAFSTS
TAF AMD
KSTS 211607Z 2116/2212 VRB03KT 2SM BR OVC002
     FM211700 VRB03KT P6SM FEW006 SCT040
     FM212000 16005KT P6SM FEW035 BKN100
     FM220600 16006KT 3SM -RA BR BKN010=



000
FTUS46 KMTR 211500 AAB
TAFSFO
TAF AMD
KSFO 211509Z 2115/2218 VRB03KT P6SM SCT010 BKN015
     FM211730 03004KT P6SM FEW011 SCT025
     FM212100 30006KT P6SM FEW035 BKN100
     FM220400 14006KT P6SM FEW025 SCT040 BKN100
     FM221300 16010KT P6SM -RA BKN035=



000
FTUS46 KMTR 211300 AAA
TAFSFO
TAF AMD
KSFO 211313Z 2113/2218 00000KT P6SM SCT012 BKN020
     FM211730 03004KT P6SM FEW011 SCT025
     FM212100 30006KT P6SM FEW035 BKN100
     FM220400 14006KT P6SM FEW025 SCT040 BKN100
     FM221300 16010KT P6SM -RA BKN035=



000
FTUS46 KMTR 211200 AAA
TAFSJC
TAF AMD
KSJC 211219Z 2112/2212 13003KT P6SM OVC022
     FM211730 13003KT P6SM SCT030
     FM212200 30007KT P6SM FEW040 SCT150
     FM220300 14006KT P6SM FEW035 BKN120=



000
FTUS46 KMTR 211100
TAFSNS
TAF
KSNS 211137Z 2112/2212 12005KT 1/4SM FG VV002
     FM211700 VRB03KT P6SM FEW006 SCT040
     FM212000 28008KT P6SM FEW035 SCT150
     FM220200 14004KT P6SM SKC
     FM220900 12007KT P6SM BKN040=



000
FTUS46 KMTR 211100
TAFMRY
TAF
KMRY 211137Z 2112/2212 11003KT P6SM SCT016
     FM211900 29005KT P6SM FEW035 SCT150
     FM220200 12004KT P6SM SKC
     FM220800 12006KT P6SM BKN040=



000
FTUS46 KMTR 211100
TAFSJC
TAF
KSJC 211129Z 2112/2212 14003KT P6SM SKC
     FM212200 30007KT P6SM FEW040 SCT150
     FM220300 14006KT P6SM FEW035 BKN120=



000
FTUS46 KMTR 211100
TAFOAK
TAF
KOAK 211128Z 2112/2218 01003KT P6SM OVC017
     FM211800 14005KT P6SM FEW015 SCT035 BKN120
     FM212100 27006KT P6SM FEW030 BKN100
     FM220300 16008KT P6SM BKN040
     FM221300 17010KT P6SM -RA BKN035=



000
FTUS46 KMTR 211100
TAFSFO
TAF
KSFO 211128Z 2112/2218 00000KT P6SM BKN008 BKN016 OVC022
     FM211730 03004KT P6SM FEW011 SCT025
     FM212100 30006KT P6SM FEW035 BKN100
     FM220400 14006KT P6SM FEW025 SCT040 BKN100
     FM221300 16010KT P6SM -RA BKN035=



000
FTUS46 KMTR 211100
TAFSTS
TAF
KSTS 211120Z 2112/2212 35005KT 1SM BR OVC002
     FM211400 VRB03KT 1/4SM FG VV001
     FM211800 VRB03KT P6SM FEW006 SCT040
     FM212000 16005KT P6SM FEW035 BKN100
     FM220600 16006KT 3SM -RA BR BKN010=



000
FTUS46 KMTR 210900 AAA
TAFMRY
TAF AMD
KMRY 210931Z 2110/2206 00000KT P6SM BKN019 BKN029 OVC060
     FM211900 29005KT P6SM FEW040 BKN120
     FM220200 12004KT P6SM SKC=



000
FTUS46 KMTR 210900 AAB
TAFOAK
TAF AMD
KOAK 210931Z 2110/2212 05003KT P6SM BKN017 OVC035
     FM211200 12003KT P6SM BKN025 BKN035
     FM211800 16005KT P6SM FEW015 SCT035 BKN120
     FM212100 27006KT P6SM FEW030 BKN100
     FM220300 16008KT P6SM BKN040=



000
FTUS46 KMTR 210900 AAA
TAFOAK
TAF AMD
KOAK 210916Z 2109/2212 05005KT P6SM SCT017 BKN024 OVC035
     FM211200 12003KT P6SM BKN025 BKN035
     FM211800 16005KT P6SM FEW015 SCT035 BKN120
     FM212100 27006KT P6SM FEW030 BKN100
     FM220300 16008KT P6SM BKN040=



000
FTUS46 KMTR 210900 AAB
TAFSFO
TAF AMD
KSFO 210916Z 2109/2212 04010KT P6SM BKN018
     FM211300 16005KT P6SM BKN015
     FM211700 03004KT P6SM FEW015 SCT040 BKN120
     FM212100 30006KT P6SM FEW035 BKN100
     FM220400 14006KT P6SM FEW025 SCT040 BKN100=



000
FTUS46 KMTR 210900 AAA
TAFSFO
TAF AMD
KSFO 210915Z 2109/2212 33007KT P6SM FEW035
     FM211300 16005KT P6SM BKN025
     FM211700 03004KT P6SM FEW015 SCT040 BKN120
     FM212100 30006KT P6SM FEW035 BKN100
     FM220400 14006KT P6SM FEW025 SCT040 BKN100=



000
FTUS46 KMTR 210500
TAFMRY
TAF
KMRY 210540Z 2106/2206 09004KT P6SM -SHRA FEW030 BKN070 OVC100
     FM211000 12003KT P6SM FEW020 SCT040 BKN100
     FM211900 29005KT P6SM FEW040 BKN120
     FM220200 12004KT P6SM SKC=



000
FTUS46 KMTR 210500
TAFSNS
TAF
KSNS 210540Z 2106/2206 12004KT P6SM FEW003 BKN040 OVC050
     FM211300 11008KT P6SM SCT035 BKN100
     FM212000 28008KT P6SM FEW040 BKN100
     FM220200 14004KT P6SM SKC=



000
FTUS46 KMTR 210500
TAFSJC
TAF
KSJC 210537Z 2106/2206 16007KT P6SM FEW050 SCT080
     FM211100 VRB03KT P6SM FEW025 BKN040
     FM212100 30007KT P6SM FEW040 BKN120
     FM220300 14005KT P6SM FEW035 BKN100=



000
FTUS46 KMTR 210500
TAFSFO
TAF
KSFO 210536Z 2106/2212 16007KT P6SM SCT027 BKN035 BKN050
     FM211300 16005KT P6SM BKN015 BKN050
     FM211700 03004KT P6SM FEW015 SCT040 BKN120
     FM212100 30006KT P6SM FEW035 BKN100
     FM220400 14006KT P6SM FEW025 SCT040 BKN100=



000
FTUS46 KMTR 210500
TAFOAK
TAF
KOAK 210536Z 2106/2212 06003KT P6SM SCT030 BKN040 OVC060
     FM211200 12003KT P6SM BKN015 BKN035
     FM211800 16005KT P6SM FEW015 SCT035 BKN120
     FM212100 27006KT P6SM FEW030 BKN100
     FM220300 16008KT P6SM BKN040=



000
FTUS46 KMTR 210500
TAFSTS
TAF
KSTS 210532Z 2106/2206 33003KT 1/4SM FG VV001
     FM211800 VRB03KT P6SM FEW006 BKN040
     FM212000 16005KT P6SM FEW035 BKN100
     FM220545 16006KT 3SM -RA BR BKN010=



000
FTUS46 KMTR 210300 AAA
TAFSTS
TAF AMD
KSTS 210320Z 2103/2124 00000KT 1 1/2SM BR BKN100
     FM210700 00000KT 1/4SM FG OVC003
     FM211800 00000KT P6SM FEW006 BKN200
     FM212000 25003KT P6SM FEW014 BKN040=



000
FTUS46 KMTR 210300 AAA
TAFSTS
TAF AMD
KSTS 210320Z 2103/2124 00000KT 1 1/2SM BR BKN100
     FM210700 00000KT 1/4SM FG OVC003
     FM211800 00000KT P6SM FEW006 BKN200
     FM212000 25003KT P6SM FEW014 BKN040=



000
FTUS46 KMTR 210300 AAA
TAFOAK
TAF AMD
KOAK 210319Z 2103/2206 09008KT 3SM RA BR VCSH BKN035 OVC070
     FM210500 33005KT P6SM BKN040
     FM211200 VRB03KT P6SM BKN015 BKN040
     FM211800 VRB04KT P6SM BKN050 OVC120
     FM212100 27006KT P6SM SCT120=



000
FTUS46 KMTR 210300 AAA
TAFSFO
TAF AMD
KSFO 210301Z 2103/2206 14005KT P6SM SCT027 BKN070 OVC090
     FM210500 24005KT P6SM SCT030 BKN050
     FM211300 VRB04KT P6SM BKN015 BKN050
     FM211600 03004KT P6SM BKN050 OVC100
     FM212000 30006KT P6SM BKN120
     FM212300 25007KT P6SM SCT120=



000
FTUS46 KMTR 202300
TAFSFO
TAF
KSFO 202339Z 2100/2206 16003KT P6SM VCTS SCT011 BKN028CB OVC080
     FM210300 29004KT P6SM SCT030 BKN050
     FM210500 29007KT P6SM BKN040
     FM211300 VRB04KT P6SM BKN015 BKN050
     FM211600 03004KT P6SM BKN050 OVC100
     FM212000 30006KT P6SM BKN120
     FM212300 25007KT P6SM SCT120=



000
FTUS46 KMTR 202300
TAFSNS
TAF
KSNS 202339Z 2100/2124 12007KT P6SM -SHRA FEW018 BKN030 OVC090
     FM210500 00000KT P6SM BKN050
     FM211500 11004KT P6SM SCT050 BKN100
     FM212000 28008KT P6SM SCT050 BKN100=



000
FTUS46 KMTR 202300
TAFMRY
TAF
KMRY 202339Z 2100/2124 11008KT P6SM -SHRA SCT035 BKN045 OVC110
     FM210400 VRB03KT P6SM BKN040
     FM211400 VRB03KT P6SM SCT040 BKN100
     FM211900 29005KT P6SM SCT050 BKN120=



000
FTUS46 KMTR 202300
TAFOAK
TAF
KOAK 202339Z 2100/2206 10003KT P6SM -SHRA VCTS SCT015 BKN028CB
      OVC080
     FM210300 29007KT 4SM BR VCSH SCT030 BKN050
     FM210500 33005KT P6SM BKN040
     FM211200 VRB03KT P6SM BKN015 BKN040
     FM211800 VRB04KT P6SM BKN050 OVC120
     FM212100 27006KT P6SM SCT120=



000
FTUS46 KMTR 202300
TAFSJC
TAF
KSJC 202339Z 2100/2124 10009KT P6SM -SHRA FEW011 BKN080 BKN110
     FM210400 VRB04KT P6SM FEW020 SCT050 BKN070
     FM211100 VRB03KT P6SM BKN015 BKN050
     FM212100 30007KT P6SM BKN120=



000
FTUS46 KMTR 202300
TAFSTS
TAF
KSTS 202339Z 2100/2124 26007KT 5SM -RA BR VCTS BKN024 BKN029
      OVC035CB
     FM210300 VRB03KT 4SM BR BKN006
     FM210700 00000KT 1/4SM FG OVC003
     FM211800 00000KT P6SM FEW006 BKN200
     FM212000 25003KT P6SM FEW014 BKN040=



000
FTUS46 KMTR 202200 AAC
TAFSTS
TAF AMD
KSTS 202227Z 2022/2118 11004KT P6SM -SHRA VCTS FEW025 BKN050CB
      OVC070
     FM210300 VRB03KT 4SM BR BKN006
     FM210700 00000KT 1/4SM FG OVC003
     FM211700 00000KT P6SM FEW006 BKN200=



000
FTUS46 KMTR 202200 AAA
TAFSNS
TAF AMD
KSNS 202226Z 2022/2118 00000KT P6SM -RA SCT035 SCT070 OVC100
      TEMPO 2022/2024 RA BKN035 OVC050
     FM210000 29009KT P6SM -RA VCTS BKN040CB
     FM210500 00000KT P6SM BKN050
     FM211500 11004KT P6SM SCT050 BKN100=



000
FTUS46 KMTR 202200 AAA
TAFMRY
TAF AMD
KMRY 202223Z 2022/2118 20005KT P6SM -RA SCT035 OVC040
      TEMPO 2022/2024 RA BKN030 OVC040
     FM210000 22005KT P6SM -RA VCTS BKN030CB
     FM210400 VRB03KT P6SM BKN050
     FM211400 VRB03KT P6SM SCT050 BKN100=



000
FTUS46 KMTR 202200 AAA
TAFSJC
TAF AMD
KSJC 202220Z 2022/2118 12004KT P6SM -SHRA FEW015 BKN080 OVC110
     FM210300 VRB04KT P6SM FEW020 SCT050 BKN070
     FM211100 VRB03KT P6SM BKN015 BKN050=



000
FTUS46 KMTR 202200 AAC
TAFSFO
TAF AMD
KSFO 202216Z 2022/2124 12010KT P6SM -SHRA VCTS FEW008 SCT030CB
      BKN090
     FM210300 29004KT P6SM SCT030 BKN050
     FM210500 29007KT P6SM BKN040
     FM211300 VRB04KT P6SM BKN015 BKN050
     FM211600 12003KT P6SM BKN050 OVC100=



000
FTUS46 KMTR 202200 AAA
TAFOAK
TAF AMD
KOAK 202215Z 2022/2124 10011KT P6SM -SHRA VCTS SCT008 BKN035CB
      OVC090
     FM210200 29007KT 4SM BR VCSH SCT030 BKN050
     FM210500 33005KT P6SM BKN040
     FM211200 VRB03KT P6SM BKN015 BKN050
     FM211800 17004KT P6SM BKN050 OVC100=



000
FTUS46 KMTR 202100 AAB
TAFSTS
TAF AMD
KSTS 202147Z 2022/2118 11004KT P6SM -SHRA VCTS BKN009 BKN021
      OVC050CB
     FM210300 VRB03KT 4SM BR BKN006
     FM210700 00000KT 1/4SM FG OVC003
     FM211700 00000KT P6SM FEW006 BKN200=



000
FTUS46 KMTR 202100 AAB
TAFSFO
TAF AMD
KSFO 202122Z 2021/2124 20004KT 6SM -RA BR FEW009 SCT014 OVC026
     FM202200 18008KT 4SM -SHRA BR VCTS BKN035CB OVC050
     FM210300 29004KT P6SM SCT030 BKN050
     FM210500 29007KT P6SM BKN040
     FM211300 VRB04KT P6SM BKN015 BKN050
     FM211600 12003KT P6SM BKN050 OVC100=



000
FTUS46 KMTR 201900 AAA
TAFSTS
TAF AMD
KSTS 201911Z 2019/2118 10003KT 4SM -RA BR BKN009 OVC040
      TEMPO 2019/2021 3SM +RA BR BKN004 BKN007 OVC050
     FM202100 20004KT 4SM RA BR VCTS BKN010 OVC030CB
     FM210300 VRB03KT 3SM BR BKN006
     FM210700 00000KT 1/4SM FG OVC003
     FM211700 00000KT P6SM FEW006 BKN200=



000
FTUS46 KMTR 201800 AAA
TAFSFO
TAF AMD
KSFO 201843Z 2019/2124 00000KT P6SM -RA FEW028 BKN035 OVC060
      TEMPO 2019/2021 RA BKN015 OVC035
     FM202100 22008KT P6SM -RA VCTS BKN030CB
     FM210300 29004KT P6SM SCT030 BKN050
     FM210500 29007KT P6SM BKN040
     FM211300 VRB04KT P6SM BKN015 BKN050
     FM211600 12003KT P6SM BKN050 OVC100=



000
FTUS46 KMTR 201800 CCA
TAFMRY
TAF COR
KMRY 201805Z 2018/2118 00000KT P6SM FEW015 SCT030 OVC200
      TEMPO 2021/2023 22005KT -SHRA BKN030 OVC040
     FM202300 22005KT P6SM -RA VCTS BKN030CB
     FM210500 VRB03KT P6SM BKN050
     FM211400 VRB03KT P6SM SCT050 BKN100=



000
FTUS46 KMTR 201800 CCA
TAFSNS
TAF COR
KSNS 201804Z 2018/2118 15004KT P6SM FEW030 OVC040
      TEMPO 2021/2023 VRB04KT -SHRA BKN030 OVC040
     FM202300 29009KT P6SM -RA VCTS BKN040CB
     FM210500 00000KT P6SM BKN050
     FM211500 11004KT P6SM SCT050 BKN100=



000
FTUS46 KMTR 201700
TAFSTS
TAF
KSTS 201737Z 2018/2118 00000KT 4SM -RA BR OVC011
     FM202100 20004KT 4SM RA BR VCTS BKN010 OVC030CB
     FM210300 VRB03KT 3SM BR BKN006
     FM210700 00000KT 1/4SM FG OVC003
     FM211700 00000KT P6SM FEW006 BKN200=



000
FTUS46 KMTR 201700
TAFSFO
TAF
KSFO 201737Z 2018/2124 00000KT P6SM -RA FEW007 BKN015 OVC050
     FM202000 22008KT P6SM -RA VCTS BKN030CB
     FM210300 29004KT P6SM SCT030 BKN050
     FM210500 29007KT P6SM BKN040
     FM211300 VRB04KT P6SM BKN015 BKN050
     FM211600 12003KT P6SM BKN050 OVC100=



000
FTUS46 KMTR 201700
TAFMRY
TAF
KMRY 201737Z 2018/2118 00000KT P6SM SCT008 OVC200
     FM202300 22005KT P6SM -RA VCTS BKN030CB
     FM210500 VRB03KT P6SM BKN050
     FM211400 VRB03KT P6SM SCT050 BKN100=



000
FTUS46 KMTR 201700
TAFSJC
TAF
KSJC 201737Z 2018/2118 15003KT 4SM BR SCT007 BKN027 OVC140
     FM202000 24008KT P6SM -RA VCTS SCT008 BKN030CB OVC140
     FM210400 31007KT P6SM FEW020 SCT040 BKN050
     FM210900 VRB03KT P6SM BKN015 BKN050=



000
FTUS46 KMTR 201700
TAFOAK
TAF
KOAK 201737Z 2018/2124 00000KT 3SM -RA BR SCT005 BKN015 OVC045
     FM202000 28009KT 4SM -RA BR VCTS BKN025 BKN045CB
     FM210200 29007KT 4SM BR VCSH SCT030 BKN050
     FM210500 33005KT P6SM BKN040
     FM211200 VRB03KT P6SM BKN015 BKN050
     FM211800 17004KT P6SM BKN050 OVC100=



000
FTUS46 KMTR 201700
TAFSNS
TAF
KSNS 201737Z 2018/2118 15004KT P6SM SKC
     FM202300 29009KT P6SM -RA VCTS BKN040CB
     FM210500 00000KT P6SM BKN050
     FM211500 11004KT P6SM SCT050 BKN100=



000
FTUS46 KMTR 201600 AAA
TAFSJC
TAF AMD
KSJC 201634Z 2017/2112 15003KT 6SM BR FEW004 BKN007 OVC012
     FM202000 28009KT P6SM -RA FEW008 SCT015 BKN030
     FM210500 31007KT P6SM FEW020 SCT040 BKN050
     FM210800 18003KT P6SM SCT020 BKN050=



000
FTUS46 KMTR 201600 AAA
TAFOAK
TAF AMD
KOAK 201632Z 2017/2118 00000KT 2SM BR FEW005 OVC016
     FM201800 20006KT P6SM -RA FEW005 BKN020 BKN030
     FM202300 28009KT P6SM -SHRA BKN025
     FM210500 33005KT P6SM BKN040
     FM211200 07003KT P6SM BKN050=



000
FTUS46 KMTR 201600 AAC
TAFSFO
TAF AMD
KSFO 201630Z 2017/2118 00000KT P6SM FEW005 BKN011 OVC015
     FM201800 17007KT P6SM -RA SCT015 BKN025 OVC040
     FM202300 22008KT P6SM -SHRA BKN030
     FM210500 29007KT P6SM BKN040
     FM211300 02003KT P6SM BKN050=



000
FTUS46 KMTR 201600 AAA
TAFSTS
TAF AMD
KSTS 201618Z 2016/2112 VRB03KT 6SM -SHRA BR OVC008
     FM202200 20004KT 4SM RA BR OVC010
     FM210400 VRB03KT 3SM BR BKN006
     FM210700 00000KT 1/4SM FG OVC003=



000
FTUS46 KMTR 201500 AAB
TAFSFO
TAF AMD
KSFO 201501Z 2015/2118 15004KT P6SM BKN007 OVC011
     FM201900 17007KT P6SM -RA BKN025 OVC040
     FM202300 26008KT P6SM -SHRA BKN030
     FM210500 29007KT P6SM BKN040
     FM211300 02003KT P6SM BKN050=



000
FTUS46 KMTR 201300 AAA
TAFSFO
TAF AMD
KSFO 201305Z 2013/2118 15004KT P6SM BKN009 OVC050
     FM201900 17007KT P6SM -RA BKN025 OVC040
     FM202300 26008KT P6SM -SHRA BKN030
     FM210500 29007KT P6SM BKN040
     FM211300 02003KT P6SM BKN050=



000
FTUS46 KMTR 201100
TAFSNS
TAF
KSNS 201130Z 2012/2112 14004KT 6SM BR OVC025
     FM201800 14007KT P6SM FEW020 SCT040 BKN050
     FM202300 29009KT P6SM -RA BKN040
     FM210600 10003KT P6SM OVC025=



000
FTUS46 KMTR 201100
TAFSTS
TAF
KSTS 201130Z 2012/2112 VRB03KT 6SM -RA BR OVC011
     FM210400 VRB03KT 3SM BR BKN006
     FM210700 00000KT 1/4SM FG OVC003=



000
FTUS46 KMTR 201100
TAFSFO
TAF
KSFO 201130Z 2012/2118 15004KT P6SM FEW015 SCT200
     FM202000 20007KT P6SM -RA SCT025 BKN040
     FM202300 26008KT P6SM -SHRA BKN030
     FM210500 29007KT P6SM BKN040
     FM211300 02003KT P6SM BKN050=



000
FTUS46 KMTR 201100
TAFOAK
TAF
KOAK 201130Z 2012/2118 32005KT 4SM BR SCT020 BKN050
     FM201400 13005KT 4SM BR BKN025
     FM202000 20006KT P6SM -RA FEW015 SCT020 BKN030
     FM202300 28009KT P6SM -SHRA BKN025
     FM210500 33005KT P6SM BKN040
     FM211200 07003KT P6SM BKN050=



000
FTUS46 KMTR 201100
TAFMRY
TAF
KMRY 201130Z 2012/2112 14003KT 6SM BR OVC015
     FM201800 16007KT P6SM BKN025
     FM202300 22005KT P6SM -RA BKN030
     FM210600 13003KT P6SM OVC025=



000
FTUS46 KMTR 201100
TAFSJC
TAF
KSJC 201130Z 2012/2112 18004KT P6SM BKN010
     FM201700 15006KT P6SM BKN025 BKN050
     FM202200 28009KT P6SM -RA BKN030
     FM210500 31007KT P6SM FEW020 SCT040 BKN050
     FM210800 18003KT P6SM SCT020 BKN050=



000
FTUS46 KMTR 200900 AAA
TAFSJC
TAF AMD
KSJC 200901Z 2009/2106 00000KT P6SM OVC020
     FM201200 15004KT P6SM OVC020
     FM201700 15006KT P6SM SCT025 BKN050
     FM202200 28009KT P6SM -RA BKN030
     FM210500 31007KT P6SM FEW020 SCT040 BKN050=



000
FTUS46 KMTR 200800 AAA
TAFOAK
TAF AMD
KOAK 200823Z 2008/2112 03004KT 6SM BR BKN017 OVC050
     FM201200 14005KT P6SM BKN020
     FM201900 20006KT P6SM -RA FEW015 SCT020 BKN030
     FM202300 28009KT P6SM -SHRA BKN025
     FM210500 33005KT P6SM BKN040=



000
FTUS46 KMTR 200800 AAA
TAFSFO
TAF AMD
KSFO 200823Z 2008/2112 15004KT P6SM SCT007 BKN020
     FM201900 20007KT P6SM -RA SCT025 BKN040
     FM202200 26008KT P6SM -SHRA BKN030
     FM210500 29007KT P6SM BKN040=



000
FTUS46 KMTR 200500 RRA
TAFSNS
TAF
KSNS 200545Z 2006/2106 VRB03KT P6SM OVC019
     FM201200 14004KT 6SM BR OVC015
     FM201800 14007KT P6SM FEW020 SCT040 BKN050
     FM202300 29009KT P6SM -RA BKN040=



000
FTUS46 KMTR 200500 RRA
TAFMRY
TAF
KMRY 200545Z 2006/2106 00000KT P6SM SCT018 SCT030 OVC060
     FM201200 14003KT 4SM BR OVC015
     FM201800 16007KT P6SM BKN025
     FM202300 22005KT P6SM -RA BKN030=



000
FTUS46 KMTR 200500 RRA
TAFSJC
TAF
KSJC 200542Z 2006/2106 12006KT P6SM FEW004 SCT023 BKN050
     FM201200 15004KT P6SM BKN025
     FM201700 15006KT P6SM SCT025 BKN050
     FM202200 28009KT P6SM -RA BKN030
     FM210500 31007KT P6SM FEW020 SCT040 BKN050=



000
FTUS46 KMTR 200500
TAFOAK
TAF
KOAK 200540Z 2006/2112 00000KT P6SM FEW010 SCT021 OVC060
     FM201200 14005KT P6SM BKN020
     FM201900 20006KT P6SM -RA FEW015 SCT020 BKN030
     FM202300 28009KT P6SM -SHRA BKN025
     FM210500 33005KT P6SM BKN040=



000
FTUS46 KMTR 200500
TAFSFO
TAF
KSFO 200540Z 2006/2112 22005KT P6SM FEW010 SCT030 SCT045
     FM201200 16006KT P6SM FEW012 BKN025
     FM201900 20007KT P6SM -RA SCT025 BKN040
     FM202200 26008KT P6SM -SHRA BKN030
     FM210500 29007KT P6SM BKN040=



000
FTUS46 KMTR 200500
TAFSTS
TAF
KSTS 200534Z 2006/2106 33003KT 6SM -RA BR OVC006
     FM201000 VRB03KT 3SM BR OVC006
      TEMPO 2013/2017 1/2SM FG
     FM201800 14005KT 5SM -RA BR BKN008
     FM210500 VRB03KT 3SM BR BKN006=



000
FTUS46 KMTR 200300 AAB
TAFSFO
TAF AMD
KSFO 200302Z 2003/2106 28006KT P6SM VCSH FEW010 SCT022 OVC060
     FM201200 22006KT P6SM BKN025
     FM201800 20006KT P6SM SCT025 BKN040
     FM202200 19008KT P6SM -RA BKN030=



000
FTUS46 KMTR 200300 AAB
TAFOAK
TAF AMD
KOAK 200302Z 2003/2106 29004KT P6SM VCSH SCT011 BKN022 OVC030
     FM200500 25005KT 6SM BR SCT012 OVC022
     FM201800 20006KT P6SM SCT025 OVC100
     FM202300 26009KT P6SM -RA BKN025=



    US Dept of Commerce
    National Oceanic and Atmospheric Administration
    National Weather Service
    1325 East West Highway
    Silver Spring, MD 20910
    Page Author: NWS Internet Services Team
Disclaimer
Information Quality
Credits
Glossary
Privacy Policy
Freedom of Information Act (FOIA)
About Us
Career Opportunities